Time;durP1;ratioP1;P1;durP2;ratioP2;P2;SDS_P1;SDS_P2;PMS_P1;PMS_P2;Temp;Humidity;BMP_temperature;BMP_pressure;BME280_temperature;BME280_humidity;BME280_pressure;Samples;Min_cycle;Max_cycle;Signal;HPM_P1;HPM_P2
2022/07/27 00:01:04;;;;;;;4.83;1.93;;;;;;;12.87;80.90;101876.38;5116322;28;20551;-83
2022/07/27 00:03:29;;;;;;;3.75;1.38;;;;;;;12.87;81.78;101862.78;5135232;28;20031;-83
2022/07/27 00:05:55;;;;;;;5.53;1.40;;;;;;;12.88;81.90;101872.63;5135217;28;20027;-83
2022/07/27 00:08:22;;;;;;;8.50;1.70;;;;;;;12.87;81.76;101865.50;5099347;28;20046;-83
2022/07/27 00:10:48;;;;;;;7.03;1.58;;;;;;;12.87;81.23;101862.78;5116047;28;20035;-83
2022/07/27 00:13:14;;;;;;;6.82;1.70;;;;;;;12.88;82.27;101867.19;5116095;28;20027;-83
2022/07/27 00:15:39;;;;;;;4.93;1.90;;;;;;;12.85;81.45;101856.69;5116463;28;20054;-83
2022/07/27 00:18:05;;;;;;;4.93;1.58;;;;;;;12.82;82.69;101860.66;5134301;28;20050;-83
2022/07/27 00:20:31;;;;;;;5.43;1.70;;;;;;;12.77;82.33;101857.75;5115894;28;20481;-83
2022/07/27 00:22:58;;;;;;;8.27;1.45;;;;;;;12.74;81.96;101866.31;5116547;28;20037;-83
2022/07/27 00:25:25;;;;;;;6.53;1.70;;;;;;;12.69;82.15;101865.25;5116034;28;20027;-83
2022/07/27 00:27:51;;;;;;;5.82;1.55;;;;;;;12.66;82.72;101860.22;5116306;28;20374;-83
2022/07/27 00:30:17;;;;;;;4.55;1.80;;;;;;;12.62;83.21;101863.34;5099610;28;20032;-83
2022/07/27 00:32:42;;;;;;;9.67;2.13;;;;;;;12.56;83.23;101864.19;5116191;28;20030;-84
2022/07/27 00:35:08;;;;;;;10.77;2.45;;;;;;;12.50;83.37;101870.41;5134105;28;20059;-83
2022/07/27 00:37:34;;;;;;;10.05;2.08;;;;;;;12.46;83.78;101861.81;5134043;28;20027;-84
2022/07/27 00:39:59;;;;;;;4.13;1.73;;;;;;;12.40;83.72;101859.91;5115931;28;20057;-84
2022/07/27 00:42:28;;;;;;;5.43;2.03;;;;;;;12.39;83.95;101862.84;5116782;28;20042;-84
2022/07/27 00:44:54;;;;;;;4.65;1.70;;;;;;;12.32;84.48;101862.78;5134056;27;20359;-84
2022/07/27 00:47:21;;;;;;;8.20;2.20;;;;;;;12.29;85.02;101855.88;5098929;28;20027;-84
2022/07/27 00:49:46;;;;;;;7.63;2.15;;;;;;;12.24;85.10;101854.81;5115878;28;20030;-84
2022/07/27 00:52:13;;;;;;;3.93;1.80;;;;;;;12.22;85.51;101863.19;5098718;28;20035;-84
2022/07/27 00:54:40;;;;;;;3.88;1.70;;;;;;;12.19;86.02;101866.28;5115930;28;20066;-84
2022/07/27 00:57:05;;;;;;;4.28;1.83;;;;;;;12.17;85.55;101867.56;5117131;27;20051;-84
2022/07/27 00:59:31;;;;;;;5.93;1.85;;;;;;;12.12;85.79;101868.16;5119868;27;20058;-84
2022/07/27 01:01:57;;;;;;;7.00;2.03;;;;;;;12.08;85.57;101861.44;5119503;27;20142;-84
2022/07/27 01:04:22;;;;;;;6.60;1.97;;;;;;;12.04;86.39;101863.69;5137556;27;20072;-84
2022/07/27 01:06:48;;;;;;;6.85;2.72;;;;;;;12.05;88.40;101861.84;5119468;27;20031;-83
2022/07/27 01:11:57;;;;;;;5.72;2.10;;;;;;;11.99;88.34;101865.31;5137796;27;20104;-84
2022/07/27 01:14:23;;;;;;;8.57;1.90;;;;;;;11.96;88.90;101863.88;5137217;27;20493;-84
2022/07/27 01:16:50;;;;;;;7.75;2.40;;;;;;;11.93;90.08;101856.94;5119528;27;20030;-84
2022/07/27 01:19:16;;;;;;;11.70;2.67;;;;;;;11.90;90.43;101856.50;5120107;27;20031;-83
2022/07/27 01:21:42;;;;;;;7.55;2.17;;;;;;;11.85;90.09;101854.34;5153507;27;20051;-84
2022/07/27 01:24:08;;;;;;;7.82;2.03;;;;;;;11.82;89.75;101851.19;5101723;27;20080;-84
2022/07/27 01:26:37;;;;;;;5.43;2.03;;;;;;;11.78;90.47;101861.63;5119004;27;20023;-84
2022/07/27 01:29:03;;;;;;;5.53;1.90;;;;;;;11.76;89.95;101860.97;5118882;27;20031;-84
2022/07/27 01:31:29;;;;;;;6.97;1.83;;;;;;;11.72;89.60;101856.97;5101806;27;20034;-84
2022/07/27 01:33:55;;;;;;;4.10;2.10;;;;;;;11.68;89.61;101858.44;5118850;27;20031;-84
2022/07/27 01:36:20;;;;;;;6.57;2.10;;;;;;;11.68;90.58;101864.69;5119325;27;20118;-84
2022/07/27 01:38:46;;;;;;;5.83;1.90;;;;;;;11.64;90.34;101863.41;5135891;27;20061;-83
2022/07/27 01:41:12;;;;;;;7.18;2.33;;;;;;;11.61;90.51;101866.53;5118378;27;20027;-84
2022/07/27 01:43:38;;;;;;;5.97;2.05;;;;;;;11.56;89.67;101858.13;5136448;27;20038;-88
2022/07/27 01:46:09;;;;;;;8.37;2.17;;;;;;;11.45;89.37;101851.34;5118563;27;20378;-88
2022/07/27 01:48:39;;;;;;;4.38;2.00;;;;;;;11.46;89.34;101850.31;5136985;27;20023;-88
2022/07/27 01:51:07;;;;;;;4.78;2.22;;;;;;;11.35;89.76;101840.81;5136829;27;20052;-88
2022/07/27 01:53:37;;;;;;;5.85;2.88;;;;;;;11.38;89.71;101854.00;5137091;27;20516;-88
2022/07/27 01:56:06;;;;;;;5.05;2.50;;;;;;;11.27;89.92;101840.94;5101543;27;20479;-88
2022/07/27 01:58:35;;;;;;;7.23;2.20;;;;;;;11.23;90.08;101832.38;5112608;28;20044;-88
2022/07/27 02:01:03;;;;;;;5.68;2.40;;;;;;;11.27;90.38;101851.81;5116178;28;20043;-88
2022/07/27 02:03:31;;;;;;;7.00;2.35;;;;;;;11.17;90.72;101840.44;5115659;28;20110;-88
2022/07/27 02:05:57;;;;;;;4.30;2.33;;;;;;;11.18;90.68;101848.41;5114369;28;20079;-88
2022/07/27 02:08:22;;;;;;;7.80;2.53;;;;;;;11.11;90.47;101841.22;5113985;28;20027;-87
2022/07/27 02:13:36;;;;;;;7.77;2.70;;;;;;;11.08;92.05;101841.63;5116279;28;20051;-88
2022/07/27 02:16:02;;;;;;;9.05;2.60;;;;;;;11.04;91.28;101842.00;5114862;28;20482;-87
2022/07/27 02:18:30;;;;;;;5.90;2.55;;;;;;;11.02;91.45;101835.91;5100398;27;20043;-87
2022/07/27 02:20:57;;;;;;;6.22;2.50;;;;;;;11.04;91.48;101843.88;5117774;27;20055;-88
2022/07/27 02:23:25;;;;;;;5.00;2.17;;;;;;;10.94;91.68;101833.34;5136038;27;20038;-87
2022/07/27 02:25:53;;;;;;;6.32;2.83;;;;;;;10.99;92.01;101838.19;5101097;27;20364;-88
2022/07/27 02:28:18;;;;;;;5.38;2.25;;;;;;;10.98;92.05;101842.75;5152445;27;20023;-88
2022/07/27 02:30:46;;;;;;;6.97;2.80;;;;;;;10.92;92.27;101829.97;5117519;27;20023;-88
2022/07/27 02:33:15;;;;;;;3.70;2.55;;;;;;;10.94;92.25;101844.22;5117414;27;20497;-88
2022/07/27 02:35:41;;;;;;;8.65;2.63;;;;;;;10.88;92.91;101836.84;5117885;27;20092;-87
2022/07/27 02:38:11;;;;;;;7.63;2.33;;;;;;;10.89;94.29;101838.50;5117066;27;20483;-87
2022/07/27 02:40:42;;;;;;;7.15;2.30;;;;;;;10.85;94.28;101832.63;5118212;27;20032;-87
2022/07/27 02:43:12;;;;;;;7.25;2.53;;;;;;;10.87;94.34;101827.84;5118355;27;20367;-87
2022/07/27 02:45:43;;;;;;;4.85;2.58;;;;;;;10.82;94.28;101832.16;5101014;27;20111;-87
2022/07/27 02:48:09;;;;;;;9.60;2.88;;;;;;;10.81;93.43;101844.06;5134972;27;20087;-87
2022/07/27 02:50:49;;;;;;;8.73;3.00;;;;;;;10.78;93.44;101836.31;5117216;27;20117;-87
2022/07/27 02:53:19;;;;;;;12.20;3.50;;;;;;;10.68;93.55;101829.31;5100266;27;20031;-88
2022/07/27 02:55:45;;;;;;;9.88;2.67;;;;;;;10.62;93.88;101823.81;5116902;27;20031;-87
2022/07/27 02:58:10;;;;;;;5.40;2.77;;;;;;;10.66;94.43;101833.25;5100012;27;20416;-87
2022/07/27 03:00:42;;;;;;;8.10;2.87;;;;;;;10.59;94.36;101824.22;5117158;27;20390;-87
2022/07/27 03:03:23;;;;;;;;;;;;;;;;;;;;;
2022/07/27 03:05:49;;;;;;;5.95;2.92;;;;;;;10.61;95.45;101833.81;5135393;27;20023;-87
2022/07/27 03:08:17;;;;;;;10.97;3.10;;;;;;;10.59;95.95;101830.47;5116742;27;20049;-87
2022/07/27 03:10:42;;;;;;;6.03;2.70;;;;;;;10.58;95.43;101830.66;5116795;27;20519;-87
2022/07/27 03:13:08;;;;;;;5.00;2.80;;;;;;;10.57;96.12;101831.69;5116626;27;20035;-87
2022/07/27 03:15:43;;;;;;;6.22;2.33;;;;;;;10.56;96.21;101830.03;5117357;27;20027;-87
2022/07/27 03:18:28;;;;;;;11.82;3.60;;;;;;;10.59;96.50;101844.03;5135013;27;20399;-87
2022/07/27 03:20:56;;;;;;;6.37;2.60;;;;;;;10.61;96.75;101847.38;5117004;27;20019;-87
2022/07/27 03:23:27;;;;;;;10.35;2.85;;;;;;;10.59;97.39;101844.03;5116395;27;20083;-88
2022/07/27 03:25:58;;;;;;;6.03;3.03;;;;;;;10.63;97.40;101844.47;5116952;27;20027;-88
2022/07/27 03:28:23;;;;;;;8.30;2.65;;;;;;;10.61;97.39;101838.41;5116653;27;20038;-88
2022/07/27 03:31:09;;;;;;;6.30;2.70;;;;;;;10.55;97.18;101831.88;5134733;27;20027;-88
2022/07/27 03:33:35;;;;;;;6.43;3.00;;;;;;;10.52;96.59;101838.50;5116936;27;20497;-88
2022/07/27 03:36:06;;;;;;;6.00;2.78;;;;;;;10.50;96.37;101845.19;5116489;27;20027;-88
2022/07/27 03:38:40;;;;;;;9.27;3.70;;;;;;;10.46;96.31;101841.16;5116182;27;20030;-88
2022/07/27 03:41:15;;;;;;;;;;;;;;;;;;;;;
2022/07/27 03:43:48;;;;;;;8.60;3.00;;;;;;;10.47;96.54;101843.69;5135492;27;20027;-88
2022/07/27 03:46:14;;;;;;;5.20;2.45;;;;;;;10.48;96.84;101842.66;5134877;27;20020;-88
2022/07/27 03:48:44;;;;;;;11.43;3.40;;;;;;;10.47;97.12;101845.56;5116048;27;20368;-87
2022/07/27 03:51:12;;;;;;;6.85;3.00;;;;;;;10.46;97.03;101846.59;5099120;27;20107;-88
2022/07/27 03:53:40;;;;;;;6.35;2.78;;;;;;;10.50;96.82;101840.59;5099335;28;20101;-88
2022/07/27 03:56:08;;;;;;;11.47;2.70;;;;;;;10.58;97.04;101846.94;5099604;28;20038;-88
2022/07/27 03:58:35;;;;;;;5.97;3.08;;;;;;;10.67;97.22;101848.50;5099019;28;20058;-87
2022/07/27 04:01:11;;;;;;;6.40;2.88;;;;;;;10.67;97.34;101841.22;5133285;28;20031;-88
2022/07/27 04:03:39;;;;;;;8.40;2.67;;;;;;;10.78;96.18;101852.59;5135493;28;20031;-87
2022/07/27 04:06:07;;;;;;;8.27;3.00;;;;;;;10.79;96.82;101841.56;5116912;28;20087;-88
2022/07/27 04:08:40;;;;;;;8.53;2.80;;;;;;;10.91;96.36;101850.03;5116222;28;20035;-88
2022/07/27 04:11:07;;;;;;;4.38;2.65;;;;;;;10.91;96.11;101841.03;5134499;27;20051;-88
2022/07/27 04:13:35;;;;;;;12.10;3.30;;;;;;;10.95;95.79;101845.88;5116671;28;20439;-88
2022/07/27 04:16:03;;;;;;;9.80;2.97;;;;;;;11.01;96.83;101846.97;5099130;28;20077;-88
2022/07/27 04:18:31;;;;;;;8.57;3.17;;;;;;;11.08;96.25;101849.75;5133491;27;20028;-87
2022/07/27 04:21:02;;;;;;;8.73;3.10;;;;;;;11.08;96.89;101841.63;5116224;28;20450;-87
2022/07/27 04:23:38;;;;;;;;;;;;;;;;;;;;;
2022/07/27 04:26:05;;;;;;;5.35;2.85;;;;;;;11.10;95.14;101845.84;5135074;28;20033;-88
2022/07/27 04:28:54;;;;;;;18.10;3.38;;;;;;;11.14;95.77;101840.84;5099072;28;20031;-88
2022/07/27 04:31:22;;;;;;;8.55;3.28;;;;;;;11.21;95.02;101855.31;5116563;27;20031;-88
2022/07/27 04:33:50;;;;;;;9.27;2.93;;;;;;;11.19;94.86;101849.22;5119638;27;20040;-88
2022/07/27 04:36:16;;;;;;;6.93;2.88;;;;;;;11.21;94.85;101848.00;5119869;27;20457;-88
2022/07/27 04:38:44;;;;;;;9.75;3.10;;;;;;;11.22;94.49;101846.16;5119828;27;20067;-88
2022/07/27 04:41:09;;;;;;;8.93;2.97;;;;;;;11.28;94.47;101858.09;5119628;27;20054;-88
2022/07/27 04:43:35;;;;;;;6.05;3.20;;;;;;;11.30;94.86;101856.03;5120289;27;20332;-87
2022/07/27 04:46:07;;;;;;;10.43;3.17;;;;;;;11.25;94.51;101851.19;5119877;27;20069;-85
2022/07/27 04:48:35;;;;;;;11.23;3.00;;;;;;;11.30;94.66;101853.31;5102360;27;20504;-88
2022/07/27 04:51:07;;;;;;;6.70;3.03;;;;;;;11.33;95.03;101853.75;5120631;27;20031;-94
2022/07/27 04:53:40;;;;;;;13.07;3.20;;;;;;;11.44;94.87;101873.28;5120453;27;20027;-95
2022/07/27 04:56:17;;;;;;;7.00;2.97;;;;;;;11.38;94.64;101856.72;5104642;27;20039;-96
2022/07/27 05:03:12;;;;;;;6.95;3.13;;;;;;;11.44;94.75;101868.69;5038540;28;20540;-92
2022/07/27 05:05:48;;;;;;;5.50;3.10;;;;;;;11.47;94.30;101859.28;5037142;28;20148;-87
2022/07/27 05:08:19;;;;;;;7.05;3.17;;;;;;;11.49;94.28;101865.38;5038099;28;20025;-90
2022/07/27 05:10:45;;;;;;;7.50;3.17;;;;;;;11.52;94.16;101868.53;5037329;28;20044;-90
2022/07/27 05:13:24;;;;;;;6.88;2.95;;;;;;;11.62;94.07;101872.78;5054565;28;20033;-89
2022/07/27 05:16:07;;;;;;;9.02;2.95;;;;;;;11.65;93.97;101875.97;5054770;28;20044;-89
2022/07/27 05:18:37;;;;;;;10.60;2.45;;;;;;;11.64;93.76;101862.56;5037969;28;20033;-90
2022/07/27 05:21:05;;;;;;;10.53;3.50;;;;;;;11.64;94.31;101879.72;5037042;28;20058;-88
2022/07/27 05:23:39;;;;;;;7.93;3.05;;;;;;;11.73;95.03;101880.41;5058749;28;20051;-87
2022/07/27 05:26:09;;;;;;;7.95;4.80;;;;;;;11.80;93.90;101888.63;5097915;28;20039;-88
2022/07/27 05:28:38;;;;;;;12.38;6.80;;;;;;;11.88;93.24;101902.06;5098770;28;20062;-87
2022/07/27 05:31:08;;;;;;;16.17;6.60;;;;;;;11.86;93.16;101888.66;5098332;28;20031;-88
2022/07/27 05:33:40;;;;;;;11.13;5.53;;;;;;;11.91;92.73;101902.53;5098617;28;20034;-88
2022/07/27 05:36:28;;;;;;;11.75;5.13;;;;;;;12.00;93.65;101908.69;5098489;28;20016;-88
2022/07/27 05:38:53;;;;;;;9.00;4.40;;;;;;;11.97;93.64;101892.72;5097841;28;20046;-87
2022/07/27 05:41:31;;;;;;;7.85;4.55;;;;;;;12.07;93.72;101887.78;5098074;28;20353;-86
2022/07/27 05:44:07;;;;;;;;;;;;;;;;;;;;;
2022/07/27 05:46:41;;;;;;;8.07;3.10;;;;;;;12.21;92.57;101894.16;5109068;28;20031;-85
2022/07/27 05:49:09;;;;;;;6.07;2.85;;;;;;;12.21;92.37;101887.84;5097872;28;20487;-86
2022/07/27 05:51:44;;;;;;;6.85;2.55;;;;;;;12.33;92.98;101907.16;5097881;28;20102;-86
2022/07/27 05:54:12;;;;;;;8.52;3.40;;;;;;;12.36;92.93;101893.19;5098405;28;20038;-85
2022/07/27 05:56:45;;;;;;;6.03;2.60;;;;;;;12.49;91.97;101911.44;5097895;28;20067;-87
2022/07/27 05:59:14;;;;;;;6.93;2.70;;;;;;;12.58;91.81;101915.69;5081123;28;20048;-87
2022/07/27 06:01:41;;;;;;;7.38;2.70;;;;;;;12.58;91.43;101896.63;5100005;27;20050;-87
2022/07/27 06:04:18;;;;;;;5.68;2.88;;;;;;;12.64;90.68;101902.09;5136990;27;20114;-87
2022/07/27 06:09:50;;;;;;;10.32;2.60;;;;;;;12.84;90.13;101895.88;5113477;28;20055;-87
2022/07/27 06:12:21;;;;;;;9.83;2.67;;;;;;;12.91;89.40;101904.06;5096637;28;20471;-87
2022/07/27 06:14:51;;;;;;;8.70;2.33;;;;;;;13.03;88.90;101909.75;5113468;27;20049;-87
2022/07/27 06:17:41;;;;;;;8.35;2.42;;;;;;;13.05;88.99;101900.34;5136687;27;20031;-88
2022/07/27 06:20:20;;;;;;;4.03;2.10;;;;;;;13.14;88.57;101904.53;5118224;27;20035;-91
2022/07/27 06:22:58;;;;;;;7.03;2.83;;;;;;;13.25;88.13;101899.53;5117862;27;20027;-89
2022/07/27 06:26:05;;;;;;;;;;;;;;;;;;;;;
2022/07/27 06:28:36;;;;;;;;;;;;;;;;;;;;;
2022/07/27 06:31:04;;;;;;;6.28;2.60;;;;;;;13.47;87.11;101897.50;5136000;27;20027;-88
2022/07/27 06:33:46;;;;;;;10.23;2.35;;;;;;;13.55;87.16;101910.91;5117387;27;20071;-88
2022/07/27 06:36:29;;;;;;;11.82;2.50;;;;;;;13.61;85.56;101903.78;5100268;27;20047;-87
2022/07/27 06:39:10;;;;;;;7.37;1.77;;;;;;;13.74;84.36;101914.69;5117818;27;20050;-87
2022/07/27 06:41:43;;;;;;;5.20;1.70;;;;;;;13.81;84.80;101920.97;5136234;27;20031;-87
2022/07/27 06:44:15;;;;;;;5.10;1.80;;;;;;;13.82;82.44;101903.56;5102132;27;20081;-86
2022/07/27 06:46:42;;;;;;;3.75;1.50;;;;;;;13.97;82.50;101913.41;5100101;27;20486;-87
2022/07/27 06:49:21;;;;;;;;;;;;;;;;;;;;;
2022/07/27 06:51:49;;;;;;;8.43;1.33;;;;;;;14.14;81.50;101917.38;5119431;27;20053;-88
2022/07/27 06:54:19;;;;;;;7.80;1.60;;;;;;;14.20;80.99;101910.19;5099568;27;20399;-87
2022/07/27 06:56:53;;;;;;;5.70;1.52;;;;;;;14.31;80.66;101916.91;5100072;27;20533;-87
2022/07/27 06:59:23;;;;;;;3.75;1.38;;;;;;;14.42;80.25;101901.75;5100528;27;20039;-87
2022/07/27 07:01:51;;;;;;;3.65;1.20;;;;;;;14.61;79.26;101909.06;5116247;27;20146;-87
2022/07/27 07:04:22;;;;;;;3.73;1.73;;;;;;;14.85;77.05;101912.94;5117224;27;20034;-88
2022/07/27 07:07:11;;;;;;;5.60;1.20;;;;;;;15.17;77.04;101917.59;5116680;27;20072;-88
2022/07/27 07:09:40;;;;;;;4.93;1.08;;;;;;;15.40;75.14;101908.81;5100148;27;20035;-87
2022/07/27 07:12:32;;;;;;;4.40;0.88;;;;;;;15.82;74.21;101931.00;5117553;27;20023;-87
2022/07/27 07:15:08;;;;;;;2.95;0.65;;;;;;;16.13;71.98;101910.91;5134869;27;20447;-87
2022/07/27 07:17:34;;;;;;;3.60;0.97;;;;;;;16.55;70.70;101909.41;5116708;27;20111;-88
2022/07/27 07:20:06;;;;;;;5.25;1.10;;;;;;;16.91;69.26;101916.75;5116666;27;20062;-87
2022/07/27 07:22:34;;;;;;;8.68;1.20;;;;;;;17.35;67.35;101916.56;5135395;27;20023;-88
2022/07/27 07:25:03;;;;;;;4.97;0.95;;;;;;;17.67;65.31;101911.59;5116552;27;20048;-86
2022/07/27 07:27:40;;;;;;;16.67;1.77;;;;;;;18.05;65.02;101913.06;5116858;27;20475;-89
2022/07/27 07:30:17;;;;;;;4.75;1.45;;;;;;;18.55;64.39;101917.16;5116791;27;20092;-87
2022/07/27 07:32:42;;;;;;;11.25;1.10;;;;;;;18.98;61.48;101915.00;5135184;27;20466;-85
2022/07/27 07:35:10;;;;;;;7.40;1.00;;;;;;;19.26;58.81;101927.91;5116125;27;20122;-86
2022/07/27 07:37:37;;;;;;;3.42;0.95;;;;;;;19.42;58.93;101917.16;5134655;27;20023;-85
2022/07/27 07:40:07;;;;;;;2.45;0.60;;;;;;;19.46;56.23;101918.34;5116340;27;20023;-85
2022/07/27 07:42:52;;;;;;;5.50;1.00;;;;;;;19.30;58.56;101920.00;5116051;27;20030;-87
2022/07/27 07:45:19;;;;;;;3.38;0.80;;;;;;;19.14;56.33;101927.13;5134527;27;20458;-85
2022/07/27 07:54:40;;;;;;;;;;;;;;;;;;;;;
2022/07/27 07:57:35;;;;;;;3.78;1.00;;;;;;;19.04;59.74;101943.44;5057778;28;20033;-87
2022/07/27 08:00:17;;;;;;;;;;;;;;;;;;;;;
2022/07/27 08:03:00;;;;;;;6.83;1.00;;;;;;;18.94;58.13;101935.81;5118049;28;20055;-85
2022/07/27 08:06:15;;;;;;;3.50;1.00;;;;;;;18.95;57.00;101940.25;5135666;27;20050;-85
2022/07/27 08:08:32;;;;;;;3.10;1.00;;;;;;;18.83;55.19;101934.75;5117742;27;20031;-85
2022/07/27 08:11:03;;;;;;;7.95;0.80;;;;;;;18.89;56.55;101941.22;5119458;27;20053;-86
2022/07/27 08:13:29;;;;;;;4.65;1.17;;;;;;;18.65;57.50;101949.53;5119736;27;20543;-85
2022/07/27 08:15:54;;;;;;;2.20;1.00;;;;;;;18.54;58.41;101951.22;5138335;27;20107;-85
2022/07/27 08:18:20;;;;;;;8.47;1.30;;;;;;;18.42;58.96;101950.41;5138834;27;20395;-85
2022/07/27 08:20:45;;;;;;;5.63;0.90;;;;;;;18.33;59.10;101952.69;5120215;27;20092;-86
2022/07/27 08:23:16;;;;;;;2.93;1.20;;;;;;;18.27;59.89;101948.16;5120499;27;20027;-84
2022/07/27 08:25:42;;;;;;;3.42;1.30;;;;;;;18.33;60.30;101952.69;5120433;27;20034;-84
2022/07/27 08:28:07;;;;;;;5.17;1.00;;;;;;;18.31;59.87;101954.84;5138156;27;20023;-85
2022/07/27 08:30:38;;;;;;;2.63;1.10;;;;;;;18.49;59.76;101944.78;5138219;27;20023;-85
2022/07/27 08:33:07;;;;;;;5.53;1.13;;;;;;;18.64;58.25;101938.78;5119641;27;20076;-85
2022/07/27 08:35:36;;;;;;;4.63;1.10;;;;;;;18.75;55.83;101948.91;5119482;27;20139;-84
2022/07/27 08:38:09;;;;;;;5.93;1.60;;;;;;;18.98;56.28;101948.00;5119398;27;20067;-84
2022/07/27 08:40:36;;;;;;;5.00;2.00;;;;;;;19.13;54.96;101944.72;5138495;27;20034;-85
2022/07/27 08:43:05;;;;;;;7.90;1.33;;;;;;;19.22;53.96;101934.13;5119712;27;20020;-85
2022/07/27 08:45:33;;;;;;;6.80;1.00;;;;;;;19.59;53.66;101936.44;5119374;27;20071;-85
2022/07/27 08:48:02;;;;;;;2.40;0.90;;;;;;;20.04;51.97;101929.19;5119820;27;20066;-84
2022/07/27 09:00:06;;;;;;;4.18;1.20;;;;;;;20.94;46.37;101937.28;5080115;28;20061;-85
2022/07/27 09:02:36;;;;;;;3.42;0.93;;;;;;;20.89;45.90;101934.44;5118891;27;20047;-85
2022/07/27 09:05:03;;;;;;;2.47;0.82;;;;;;;20.97;45.33;101939.50;5102480;27;20031;-84
2022/07/27 09:07:30;;;;;;;4.47;1.10;;;;;;;21.02;46.38;101940.41;5137701;27;20038;-85
2022/07/27 09:09:58;;;;;;;4.55;1.08;;;;;;;21.16;45.18;101946.31;5137878;27;20070;-80
2022/07/27 09:12:33;;;;;;;2.15;0.98;;;;;;;21.11;43.14;101939.91;5153566;27;20038;-85
2022/07/27 09:15:17;;;;;;;3.50;1.30;;;;;;;21.11;44.78;101940.78;5119120;27;20035;-85
2022/07/27 09:17:46;;;;;;;2.90;0.93;;;;;;;21.07;43.29;101945.13;5118699;27;20473;-85
2022/07/27 09:20:16;;;;;;;2.80;1.00;;;;;;;21.15;43.49;101941.91;5118834;27;20031;-86
2022/07/27 09:22:52;;;;;;;4.28;1.10;;;;;;;21.21;47.17;101948.31;5119307;27;20038;-85
2022/07/27 09:25:34;;;;;;;9.80;1.55;;;;;;;21.31;47.91;101942.88;5119160;27;20081;-85
2022/07/27 09:28:03;;;;;;;3.28;1.20;;;;;;;21.27;45.57;101954.72;5137843;27;20088;-85
2022/07/27 09:30:39;;;;;;;3.83;1.13;;;;;;;21.07;46.04;101952.56;5137561;27;20027;-85
2022/07/27 09:33:05;;;;;;;7.23;1.40;;;;;;;20.91;47.88;101944.13;5118813;27;20043;-85
2022/07/27 09:35:34;;;;;;;4.55;0.98;;;;;;;20.77;48.27;101956.66;5118679;27;20038;-85
2022/07/27 09:38:23;;;;;;;4.70;1.30;;;;;;;20.77;49.01;101957.50;5135612;27;20027;-85
2022/07/27 09:41:08;;;;;;;4.30;1.38;;;;;;;20.57;48.85;101947.00;5107640;27;20561;-84
2022/07/27 09:43:52;;;;;;;6.37;1.40;;;;;;;20.38;48.57;101952.00;5118847;27;20466;-85
2022/07/27 09:46:47;;;;;;;6.90;1.75;;;;;;;20.32;50.01;101956.59;5118477;27;20113;-85
2022/07/27 09:49:45;;;;;;;4.45;1.20;;;;;;;20.14;50.07;101954.97;5118746;27;20096;-85
2022/07/27 09:52:29;;;;;;;4.97;1.20;;;;;;;20.05;50.80;101950.97;5095100;27;20035;-85
2022/07/27 09:55:06;;;;;;;4.68;1.52;;;;;;;20.05;50.84;101942.72;5137059;27;20114;-85
2022/07/27 09:57:55;;;;;;;6.07;1.10;;;;;;;20.16;51.42;101939.00;5118621;27;20046;-85
2022/07/27 10:00:23;;;;;;;6.40;1.27;;;;;;;19.99;50.92;101946.50;5118604;27;20051;-85
2022/07/27 10:02:51;;;;;;;5.05;1.58;;;;;;;19.98;51.84;101953.91;5117640;27;20486;-85
2022/07/27 10:05:20;;;;;;;6.88;1.20;;;;;;;20.11;51.98;101947.22;5136299;27;20039;-85
2022/07/27 10:07:46;;;;;;;2.97;1.20;;;;;;;20.26;50.58;101963.13;5136969;27;20029;-85
2022/07/27 10:10:14;;;;;;;6.63;1.47;;;;;;;20.59;49.95;101955.00;5117801;27;20050;-85
2022/07/27 10:12:43;;;;;;;6.38;1.55;;;;;;;20.87;48.98;101951.25;5118106;27;20023;-85
2022/07/27 10:15:09;;;;;;;4.38;1.40;;;;;;;21.31;47.56;101947.59;5117978;27;20045;-85
2022/07/27 10:17:41;;;;;;;5.60;1.13;;;;;;;21.55;46.67;101939.81;5118564;27;20038;-85
2022/07/27 10:20:09;;;;;;;4.15;0.98;;;;;;;21.90;46.24;101938.44;5117782;27;20114;-85
2022/07/27 10:22:57;;;;;;;3.33;1.40;;;;;;;22.21;46.77;101933.94;5117670;27;20083;-85
2022/07/27 10:25:24;;;;;;;2.58;1.00;;;;;;;22.26;44.52;101941.41;5117826;27;20031;-85
2022/07/27 10:28:17;;;;;;;5.18;1.52;;;;;;;22.01;45.03;101945.72;5117849;27;20509;-85
2022/07/27 10:30:43;;;;;;;3.75;1.40;;;;;;;21.65;45.93;101936.31;5117268;27;20031;-85
2022/07/27 10:33:51;;;;;;;2.72;1.20;;;;;;;21.45;47.47;101934.19;5117582;27;20023;-85
2022/07/27 10:36:45;;;;;;;3.73;1.20;;;;;;;21.75;46.07;101933.63;5117531;27;20107;-85
2022/07/27 10:39:25;;;;;;;4.88;1.05;;;;;;;22.19;44.79;101927.00;5100132;27;20031;-86
2022/07/27 10:41:51;;;;;;;7.55;1.40;;;;;;;22.45;41.89;101921.66;5117158;27;20031;-86
2022/07/27 10:44:20;;;;;;;6.90;1.48;;;;;;;22.62;40.30;101919.50;5117454;27;20068;-85
2022/07/27 10:46:53;;;;;;;8.93;1.80;;;;;;;22.60;41.24;101922.53;5135248;27;20073;-85
2022/07/27 10:49:23;;;;;;;3.28;1.17;;;;;;;22.59;42.09;101929.16;5117153;27;20492;-84
2022/07/27 10:51:49;;;;;;;4.55;1.20;;;;;;;22.42;42.39;101926.59;5117096;27;20019;-86
2022/07/27 10:54:26;;;;;;;7.93;1.25;;;;;;;22.24;43.44;101921.50;5116580;27;20030;-86
2022/07/27 10:56:58;;;;;;;6.15;1.42;;;;;;;21.97;43.27;101919.69;5136097;27;20034;-86
2022/07/27 10:59:40;;;;;;;2.73;1.03;;;;;;;22.01;44.13;101915.31;5116619;27;20069;-85
2022/07/27 11:02:16;;;;;;;6.43;1.40;;;;;;;21.78;42.98;101907.44;5116582;27;20082;-85
2022/07/27 11:04:51;;;;;;;3.92;1.10;;;;;;;21.81;43.42;101910.47;5135791;27;20072;-85
2022/07/27 11:07:23;;;;;;;3.08;1.27;;;;;;;21.68;43.09;101919.22;5116504;27;20429;-85
2022/07/27 11:09:53;;;;;;;5.00;2.10;;;;;;;21.76;43.00;101912.38;5116376;27;20058;-85
2022/07/27 11:12:18;;;;;;;4.07;1.60;;;;;;;21.79;43.13;101915.44;5134907;27;20027;-86
2022/07/27 11:14:53;;;;;;;8.27;2.08;;;;;;;22.03;43.78;101915.88;5116174;27;20364;-86
2022/07/27 11:17:26;;;;;;;4.03;1.50;;;;;;;22.12;42.69;101907.09;5135045;27;20015;-86
2022/07/27 11:19:56;;;;;;;4.88;1.30;;;;;;;22.15;42.65;101918.41;5116488;27;20020;-86
2022/07/27 11:22:32;;;;;;;2.43;1.27;;;;;;;22.38;42.68;101922.72;5116428;27;20428;-86
2022/07/27 11:24:58;;;;;;;4.10;1.52;;;;;;;22.54;41.24;101908.97;5134582;27;20470;-86
2022/07/27 11:27:24;;;;;;;6.72;1.90;;;;;;;22.93;41.05;101909.34;5099354;27;20035;-86
2022/07/27 11:29:50;;;;;;;3.88;1.60;;;;;;;23.59;39.74;101906.94;5115881;27;20034;-86
2022/07/27 11:32:19;;;;;;;6.93;1.50;;;;;;;24.03;39.08;101909.13;5134694;27;20031;-86
2022/07/27 11:34:46;;;;;;;6.43;1.52;;;;;;;24.70;36.81;101903.38;5134773;27;20487;-85
2022/07/27 11:37:17;;;;;;;2.45;1.00;;;;;;;25.12;36.42;101896.41;5116299;27;20023;-86
2022/07/27 11:39:49;;;;;;;3.78;1.52;;;;;;;25.60;34.99;101903.28;5116277;27;20056;-86
2022/07/27 11:42:15;;;;;;;6.60;1.67;;;;;;;25.67;34.74;101893.47;5134215;27;20053;-86
2022/07/27 11:44:45;;;;;;;6.57;1.75;;;;;;;25.87;34.53;101897.19;5099068;27;20502;-86
2022/07/27 11:47:23;;;;;;;3.58;1.40;;;;;;;25.99;34.32;101883.75;5116256;27;20023;-85
2022/07/27 11:49:49;;;;;;;2.73;1.40;;;;;;;26.26;34.34;101893.44;5150529;27;20114;-86
2022/07/27 11:52:16;;;;;;;3.95;1.58;;;;;;;26.00;32.98;101901.25;5133139;27;20035;-86
2022/07/27 11:54:41;;;;;;;6.53;1.93;;;;;;;26.17;33.14;101898.00;5116196;27;20038;-86
2022/07/27 11:57:19;;;;;;;5.32;2.00;;;;;;;26.04;33.10;101896.75;5116014;27;20592;-86
2022/07/27 11:59:45;;;;;;;5.27;1.87;;;;;;;26.12;32.92;101893.34;5134453;27;20118;-86
2022/07/27 12:02:21;;;;;;;4.35;1.63;;;;;;;27.40;33.41;101892.69;5115832;28;20187;-86
2022/07/27 12:04:50;;;;;;;3.70;1.67;;;;;;;31.48;26.88;101884.91;5115858;28;20063;-86
2022/07/27 12:07:20;;;;;;;3.97;1.30;;;;;;;35.83;23.44;101892.78;5115724;28;20031;-86
2022/07/27 12:10:08;;;;;;;3.57;2.00;;;;;;;38.46;22.09;101883.88;5115690;28;20387;-86
2022/07/27 12:12:34;;;;;;;6.80;1.83;;;;;;;38.43;18.38;101876.16;5099701;28;20156;-86
2022/07/27 12:15:20;;;;;;;2.17;1.80;;;;;;;40.74;19.33;101876.31;5115768;28;20088;-86
2022/07/27 12:17:53;;;;;;;5.72;2.10;;;;;;;42.58;14.18;101862.94;5119360;28;20402;-86
2022/07/27 12:20:19;;;;;;;4.03;2.15;;;;;;;42.63;13.23;101867.44;5100190;28;20099;-86
2022/07/27 12:22:53;;;;;;;3.70;2.70;;;;;;;43.67;14.59;101865.94;5134224;28;20031;-86
2022/07/27 12:25:22;;;;;;;3.20;2.40;;;;;;;44.46;12.80;101859.44;5134491;28;20055;-83